LiveATC.Net - Listen to live air traffic control over the Internet!


ICAO: EHSE  IATA:   Airport: Breda International Airport
City: Bosschenhoofd
Country: Netherlands   Continent: Europe
EHWO METAR Weather: EHWO 201055Z AUTO 32010KT 260V360 9999 FEW030 SCT036 BKN062 05/01 Q1031 BLU TEMPO 36008KT
EHSE Flight Activity (FlightAware)
EHSE Webcam:  (Airport Webcams) 

EHSE Radio/FIC
Feed Status: DOWN
Last heard on: 2022-01-03 06:17:38 (17 days 4 hours 56 minutes ago)
Archive Access: EHSE Radio/FIC
FacilityFrequency
Dutch MIL Info FIC132.350
Seppe Radio (Tower/Ground)120.655

NOTICE

Unauthorized use prohibited. See LiveATC.net Terms of Service


Airport/ARTCC Code
Frequency Search
(e.g., 124.400, 128.75)
Site-wide search
 


Browse Feeds
Top 50 Feeds
HF Oceanic Feeds
Coverage Map
Bad Weather Areas

LiveATC FAQ
Offer LiveATC feed
Contact LiveATC.net
Press Inquiries

LiveATC on iPhone
LiveATC on Android

LiveATC Mobile
(Mobile browser)

ATC Audio Archives
Interesting Recordings

LiveATC Forums


Home Page
About LiveATC.net
Make a Donation
Terms of Use
Privacy Policy

Canadian Air Freqs

AIRMETs/SIGMETs

FAA Airport Status
NAS Status
Arrival Demand


Server Software By:
Icecast.org
Liquidsoap